Terminal Aerodrome Forecast
Issued by NWS

Home | Current Version | Previous Version | Text Only | Print | Product List | Glossary On
Versions: 1 2 3 4 5 6 7 8 9 10 11 12 13 14 15
000
FTUS44 KLZK 021900 AAA
TAFBPK
TAF AMD
KBPK 021916Z 0219/0318 29012KT P6SM SCT120 BKN250
     FM030100 18005KT P6SM BKN250
     FM030900 15006KT P6SM VCTS BKN050CB
      TEMPO 0309/0313 5SM BR
     FM031500 19008KT P6SM SCT025 BKN050=

USA.gov is the U.S. government's official web portal to all federal, state and local government web resources and services.